Village of Oakview, Missouri
Current Conditions -  °F | °C
As of 12:04 PM on Saturday 20 Dec 2014 (Local Time) from KMKC Reporting Station
Broken Clouds Broken Clouds  
Wind Chill: 40°   Ceiling: 2100
Heat Index: 44°   Visibility: 10mi
Dew Point: 36°   Wind: 8mph
Humidity: 73%   Direction: 180°S
Pressure: 30.15"   Gusts: NA
Location:  39.213°N, 94.5752°W
Report Text: KMKC 201804Z 18007KT 10SM BKN021 07/02 A3015 RMK AO2 T00670022
Loading
Personal Weather Stations






























Interactive Weather Map New forecast layout! Learn more

10-Day Weather Forecast

Advertisements
Track Severe Weather on mobile